createdAt,value
2019-04-25T00:00:48.325Z,59.3079
2019-04-25T00:01:52.325Z,59.5154
2019-04-25T00:02:55.318Z,59.3079
2019-04-25T00:03:58.320Z,60.0281
2019-04-25T00:05:01.367Z,61.2610
2019-04-25T00:06:06.333Z,61.4929
2019-04-25T00:07:09.273Z,61.7004
2019-04-25T00:08:12.359Z,61.4929
2019-04-25T00:09:15.307Z,60.4675
2019-04-25T00:10:18.305Z,60.2600
2019-04-25T00:11:21.613Z,62.1094
2019-04-25T00:12:24.317Z,61.2854
2019-04-25T00:13:27.295Z,61.0840
2019-04-25T00:14:31.483Z,61.1816
2019-04-25T00:15:34.312Z,61.7004
2019-04-25T00:16:37.267Z,62.5183
2019-04-25T00:17:41.953Z,62.0056
2019-04-25T00:18:45.264Z,63.0310
2019-04-25T00:19:48.563Z,62.8296
2019-04-25T00:20:52.208Z,63.6475
2019-04-25T00:21:55.290Z,64.0564
2019-04-25T00:22:58.349Z,63.5742
2019-04-25T00:24:02.636Z,63.5742
2019-04-25T00:25:14.993Z,64.2944
2019-04-25T00:26:13.269Z,64.8071
2019-04-25T00:27:16.285Z,64.5264
2019-04-25T00:28:19.304Z,64.4287
2019-04-25T00:29:22.308Z,64.2944
2019-04-25T00:30:25.281Z,65.3503
2019-04-25T00:31:28.270Z,64.3250
2019-04-25T00:32:31.610Z,64.3250
2019-04-25T00:33:33.290Z,64.0137
2019-04-25T00:34:36.299Z,63.6780
2019-04-25T00:35:39.280Z,64.2944
2019-04-25T00:36:43.505Z,64.8376
2019-04-25T00:37:47.790Z,65.2466
2019-04-25T00:38:52.314Z,65.7654
2019-04-25T00:39:56.281Z,65.5579
2019-04-25T00:40:59.269Z,65.0452
2019-04-25T00:42:02.512Z,65.6921
2019-04-25T00:43:05.297Z,66.2048
2019-04-25T00:44:08.295Z,66.1011
2019-04-25T00:45:11.917Z,66.5100
2019-04-25T00:46:17.301Z,66.1011
2019-04-25T00:47:21.629Z,65.6921
2019-04-25T00:48:23.345Z,66.6138
2019-04-25T00:49:26.283Z,65.8936
2019-04-25T00:50:29.323Z,67.1265
2019-04-25T00:51:32.281Z,65.9973
2019-04-25T00:52:35.298Z,65.8630
2019-04-25T00:53:38.297Z,65.2771
2019-04-25T00:54:42.240Z,65.0757
2019-04-25T00:55:46.480Z,65.3809
2019-04-25T00:56:49.398Z,65.4846
2019-04-25T00:57:52.809Z,65.9973
2019-04-25T00:58:56.290Z,66.8213
2019-04-25T00:59:59.303Z,66.2048
2019-04-25T01:01:02.285Z,65.9973
2019-04-25T01:02:07.565Z,65.4846
2019-04-25T01:03:09.353Z,65.7959
2019-04-25T01:04:12.325Z,65.3809
2019-04-25T01:05:15.303Z,64.5569
2019-04-25T01:06:18.281Z,64.0442
2019-04-25T01:07:22.377Z,63.6353
2019-04-25T01:08:25.339Z,63.5010
2019-04-25T01:09:28.325Z,64.0137
2019-04-25T01:10:31.613Z,64.3250
2019-04-25T01:11:34.290Z,64.5264
2019-04-25T01:12:37.305Z,64.4592
2019-04-25T01:13:39.285Z,64.3555
2019-04-25T01:14:42.301Z,63.7390
2019-04-25T01:15:45.271Z,63.5010
2019-04-25T01:16:48.616Z,63.5010
2019-04-25T01:17:51.519Z,63.9099
2019-04-25T01:18:55.600Z,63.8123
2019-04-25T01:19:58.286Z,63.6047
2019-04-25T01:21:01.266Z,63.0920
2019-04-25T01:22:04.306Z,62.8845
2019-04-25T01:23:07.294Z,62.4756
2019-04-25T01:24:10.283Z,62.4451
2019-04-25T01:25:13.776Z,62.6526
2019-04-25T01:26:17.308Z,62.1399
2019-04-25T01:27:20.282Z,62.0361
2019-04-25T01:28:24.318Z,61.5234
2019-04-25T01:29:27.275Z,61.7249
2019-04-25T01:30:30.275Z,61.8286
2019-04-25T01:31:33.643Z,61.3159
2019-04-25T01:32:36.281Z,61.2122
2019-04-25T01:33:39.330Z,61.4197
2019-04-25T01:34:44.146Z,61.9324
2019-04-25T01:35:47.281Z,62.4756
2019-04-25T01:36:50.764Z,62.3718
2019-04-25T01:37:55.272Z,62.4756
2019-04-25T01:38:59.301Z,62.2681
2019-04-25T01:40:04.014Z,62.6770
2019-04-25T01:41:07.298Z,62.7808
2019-04-25T01:42:10.289Z,62.8845
2019-04-25T01:43:13.749Z,62.6770
2019-04-25T01:44:17.306Z,62.6770
2019-04-25T01:45:20.314Z,62.6770
2019-04-25T01:46:24.285Z,63.0920
2019-04-25T01:47:27.339Z,62.8845
2019-04-25T01:48:30.283Z,63.0920
2019-04-25T01:49:33.957Z,63.9099
2019-04-25T01:50:37.301Z,63.6047
2019-04-25T01:51:40.309Z,63.5315
2019-04-25T01:52:43.481Z,63.1226
2019-04-25T01:53:46.285Z,62.9150
2019-04-25T01:54:49.360Z,62.5793
2019-04-25T01:56:00.954Z,62.2681
2019-04-25T01:57:00.318Z,61.8591
2019-04-25T01:58:03.855Z,61.7554
2019-04-25T01:59:07.287Z,62.0605
2019-04-25T02:00:09.314Z,61.8591
2019-04-25T02:01:12.258Z,61.9629
2019-04-25T02:02:15.297Z,61.5479
2019-04-25T02:03:17.289Z,62.2681
2019-04-25T02:04:20.331Z,62.0605
2019-04-25T02:05:23.779Z,61.6516
2019-04-25T02:06:26.320Z,61.9629
2019-04-25T02:07:29.273Z,62.4756
2019-04-25T02:08:33.873Z,62.4756
2019-04-25T02:09:37.297Z,62.2681
2019-04-25T02:10:40.352Z,61.7554
2019-04-25T02:11:43.943Z,61.7554
2019-04-25T02:12:47.307Z,61.4441
2019-04-25T02:13:51.272Z,61.1389
2019-04-25T02:14:55.497Z,60.9070
2019-04-25T02:15:59.310Z,60.5957
2019-04-25T02:17:02.898Z,60.3882
2019-04-25T02:18:07.321Z,60.1868
2019-04-25T02:19:10.288Z,59.9792
2019-04-25T02:20:14.007Z,60.0525
2019-04-25T02:21:17.288Z,60.2905
2019-04-25T02:22:20.316Z,60.4919
2019-04-25T02:23:24.073Z,60.3882
2019-04-25T02:24:27.297Z,60.1868
2019-04-25T02:25:30.336Z,60.3882
2019-04-25T02:26:34.038Z,60.2905
2019-04-25T02:27:37.342Z,60.1868
2019-04-25T02:28:40.318Z,60.0830
2019-04-25T02:29:44.686Z,60.0830
2019-04-25T02:30:48.342Z,60.0830
2019-04-25T02:31:51.335Z,59.8755
2019-04-25T02:32:58.400Z,59.8755
2019-04-25T02:34:04.643Z,59.8755
2019-04-25T02:35:10.324Z,59.9792
2019-04-25T02:36:15.026Z,60.4919
2019-04-25T02:37:18.313Z,60.4919
2019-04-25T02:38:21.305Z,60.5957
2019-04-25T02:39:24.625Z,61.1389
2019-04-25T02:40:27.358Z,61.2427
2019-04-25T02:41:30.323Z,61.0352
2019-04-25T02:42:34.392Z,60.8276
2019-04-25T02:43:37.321Z,60.9314
2019-04-25T02:44:40.293Z,60.7300
2019-04-25T02:45:44.256Z,60.4187
2019-04-25T02:46:47.317Z,60.2112
2019-04-25T02:47:50.303Z,59.8755
2019-04-25T02:48:56.219Z,59.6741
2019-04-25T02:50:00.893Z,59.4666
2019-04-25T02:51:07.172Z,59.5703
2019-04-25T02:52:12.873Z,59.5703
2019-04-25T02:53:17.302Z,59.6741
2019-04-25T02:54:20.335Z,59.8755
2019-04-25T02:55:34.019Z,59.9060
2019-04-25T02:56:37.690Z,60.5225
2019-04-25T02:57:39.311Z,60.5225
2019-04-25T02:58:44.147Z,60.6262
2019-04-25T02:59:47.279Z,61.1389
2019-04-25T03:00:57.409Z,60.8276
2019-04-25T03:01:58.995Z,60.5225
2019-04-25T03:03:03.382Z,60.4187
2019-04-25T03:04:10.993Z,60.2112
2019-04-25T03:05:14.517Z,60.1135
2019-04-25T03:06:16.304Z,59.8022
2019-04-25T03:07:19.378Z,59.5947
2019-04-25T03:08:24.250Z,59.4971
2019-04-25T03:09:27.310Z,59.2590
2019-04-25T03:10:29.323Z,59.1614
2019-04-25T03:11:32.281Z,59.1614
2019-04-25T03:12:36.794Z,59.0576
2019-04-25T03:13:40.290Z,59.1614
2019-04-25T03:14:44.645Z,59.1858
2019-04-25T03:15:48.311Z,59.1858
2019-04-25T03:16:51.315Z,58.9539
2019-04-25T03:17:54.775Z,58.8501
2019-04-25T03:18:59.424Z,58.8501
2019-04-25T03:20:06.707Z,58.8501
2019-04-25T03:21:14.201Z,58.7463
2019-04-25T03:22:18.299Z,58.7463
2019-04-25T03:23:21.312Z,58.6426
2019-04-25T03:24:25.080Z,58.4412
2019-04-25T03:25:28.298Z,58.3374
2019-04-25T03:26:39.725Z,58.4412
2019-04-25T03:27:39.309Z,58.5449
2019-04-25T03:28:43.741Z,58.6426
2019-04-25T03:29:47.289Z,58.6426
2019-04-25T03:30:50.340Z,58.6426
2019-04-25T03:31:56.146Z,58.6426
2019-04-25T03:33:01.035Z,58.8501
2019-04-25T03:34:09.360Z,58.8501
2019-04-25T03:35:14.327Z,58.9539
2019-04-25T03:36:17.328Z,59.0576
2019-04-25T03:37:20.265Z,58.9539
2019-04-25T03:38:24.257Z,58.9539
2019-04-25T03:39:27.283Z,59.1614
2019-04-25T03:40:30.338Z,58.9539
2019-04-25T03:41:34.119Z,58.9539
2019-04-25T03:42:37.309Z,59.0576
2019-04-25T03:43:40.288Z,58.9539
2019-04-25T03:44:43.807Z,59.1614
2019-04-25T03:45:46.304Z,59.3628
2019-04-25T03:46:49.336Z,59.1309
2019-04-25T03:47:53.167Z,59.0271
2019-04-25T03:48:56.279Z,59.0271
2019-04-25T03:49:59.316Z,59.1309
2019-04-25T03:51:02.858Z,59.2346
2019-04-25T03:52:08.280Z,59.2346
2019-04-25T03:53:12.094Z,59.2346
2019-04-25T03:54:15.310Z,59.2346
2019-04-25T03:55:18.293Z,59.0271
2019-04-25T03:56:21.349Z,58.9233
2019-04-25T03:57:24.270Z,58.8257
2019-04-25T03:58:27.280Z,59.3384
2019-04-25T03:59:30.317Z,59.7473
2019-04-25T04:00:34.202Z,59.4360
2019-04-25T04:01:39.339Z,59.5398
2019-04-25T04:02:44.100Z,59.3384
2019-04-25T04:03:47.311Z,59.2346
2019-04-25T04:04:50.280Z,59.3384
2019-04-25T04:05:53.992Z,59.3384
2019-04-25T04:06:57.341Z,59.5398
2019-04-25T04:07:59.454Z,59.6436
2019-04-25T04:09:03.703Z,59.8511
2019-04-25T04:10:06.645Z,60.0525
2019-04-25T04:11:10.138Z,59.8511
2019-04-25T04:12:14.775Z,59.7473
2019-04-25T04:13:17.319Z,59.6436
2019-04-25T04:14:20.317Z,59.5398
2019-04-25T04:15:25.096Z,59.5398
2019-04-25T04:16:28.274Z,59.6436
2019-04-25T04:17:31.345Z,59.5398
2019-04-25T04:18:34.012Z,59.3384
2019-04-25T04:19:37.289Z,59.3384
2019-04-25T04:20:40.310Z,59.3384
2019-04-25T04:21:43.336Z,59.2346
2019-04-25T04:22:46.338Z,59.1309
2019-04-25T04:23:49.266Z,59.0271
2019-04-25T04:24:53.685Z,59.0271
2019-04-25T04:25:57.295Z,59.0271
2019-04-25T04:27:03.631Z,58.9233
2019-04-25T04:28:08.350Z,58.8257
2019-04-25T04:29:12.090Z,58.7219
2019-04-25T04:30:15.388Z,58.7219
2019-04-25T04:31:18.277Z,58.6182
2019-04-25T04:32:21.344Z,58.6182
2019-04-25T04:33:31.754Z,58.6182
2019-04-25T04:34:33.745Z,58.5144
2019-04-25T04:35:37.294Z,58.5144
2019-04-25T04:36:40.331Z,58.5144
2019-04-25T04:37:43.297Z,58.4106
2019-04-25T04:38:46.358Z,58.6182
2019-04-25T04:39:49.295Z,59.8511
2019-04-25T04:40:52.291Z,59.4360
2019-04-25T04:41:55.508Z,59.8755
2019-04-25T04:42:58.302Z,60.0830
2019-04-25T04:44:01.304Z,61.0046
2019-04-25T04:45:04.275Z,61.4197
2019-04-25T04:46:08.556Z,61.8591
2019-04-25T04:47:12.033Z,62.5793
2019-04-25T04:48:15.543Z,62.9883
2019-04-25T04:49:18.491Z,63.0920
2019-04-25T04:50:21.323Z,63.8367
2019-04-25T04:51:24.299Z,63.9404
2019-04-25T04:52:27.311Z,63.7390
2019-04-25T04:53:30.302Z,64.5569
2019-04-25T04:54:34.430Z,64.1479
2019-04-25T04:55:37.331Z,64.3555
2019-04-25T04:56:40.278Z,63.9404
2019-04-25T04:57:44.778Z,63.7390
2019-04-25T04:58:48.308Z,64.3555
2019-04-25T04:59:51.343Z,63.7390
2019-04-25T05:00:54.284Z,65.1733
2019-04-25T05:01:57.304Z,64.4836
2019-04-25T05:03:00.342Z,64.7949
2019-04-25T05:04:03.962Z,64.6912
2019-04-25T05:05:07.304Z,64.4836
2019-04-25T05:06:10.924Z,64.8987
2019-04-25T05:07:15.305Z,65.3076
2019-04-25T05:08:19.309Z,64.8987
2019-04-25T05:09:23.787Z,64.8987
2019-04-25T05:10:27.272Z,65.1062
2019-04-25T05:11:30.298Z,65.1062
2019-04-25T05:12:33.935Z,65.8264
2019-04-25T05:13:37.305Z,65.1062
2019-04-25T05:14:40.335Z,64.8987
2019-04-25T05:15:44.587Z,63.9709
2019-04-25T05:16:49.481Z,63.6658
2019-04-25T05:17:54.000Z,63.6353
2019-04-25T05:18:57.328Z,63.6353
2019-04-25T05:20:00.290Z,63.4277
2019-04-25T05:21:04.250Z,63.5315
2019-04-25T05:22:07.310Z,63.7390
2019-04-25T05:23:09.342Z,63.9404
2019-04-25T05:24:13.468Z,64.1479
2019-04-25T05:25:19.152Z,64.2517
2019-04-25T05:26:24.666Z,65.2771
2019-04-25T05:27:35.754Z,66.8213
2019-04-25T05:28:36.372Z,66.4124
2019-04-25T05:29:39.312Z,65.3809
2019-04-25T05:30:43.598Z,64.5569
2019-04-25T05:31:46.318Z,63.9404
2019-04-25T05:32:49.381Z,63.7390
2019-04-25T05:33:53.660Z,63.7390
2019-04-25T05:34:57.331Z,63.7085
2019-04-25T05:36:00.312Z,63.2935
2019-04-25T05:37:03.835Z,63.7085
2019-04-25T05:38:07.317Z,64.0137
2019-04-25T05:39:10.288Z,64.5264
2019-04-25T05:40:14.721Z,64.9719
2019-04-25T05:41:20.229Z,65.4846
2019-04-25T05:42:24.809Z,65.0757
2019-04-25T05:43:28.274Z,64.9719
2019-04-25T05:44:31.357Z,64.8682
2019-04-25T05:45:34.308Z,64.1479
2019-04-25T05:46:37.283Z,63.8123
2019-04-25T05:47:40.336Z,63.8123
2019-04-25T05:48:43.853Z,63.7085
2019-04-25T05:49:47.344Z,63.2935
2019-04-25T05:50:50.276Z,62.9883
2019-04-25T05:51:53.890Z,62.6526
2019-04-25T05:52:56.316Z,62.5488
2019-04-25T05:53:59.324Z,62.4451
2019-04-25T05:55:03.860Z,62.0361
2019-04-25T05:56:07.298Z,61.9019
2019-04-25T05:57:10.339Z,62.3108
2019-04-25T05:58:13.822Z,62.2131
2019-04-25T05:59:18.024Z,62.5183
2019-04-25T06:00:21.320Z,63.2690
2019-04-25T06:01:24.974Z,63.4705
2019-04-25T06:02:29.305Z,62.7502
2019-04-25T06:03:33.803Z,63.1653
2019-04-25T06:04:37.310Z,63.4705
2019-04-25T06:05:40.332Z,63.5742
2019-04-25T06:06:44.614Z,63.4705
2019-04-25T06:07:47.289Z,63.9832
2019-04-25T06:08:50.345Z,63.1653
2019-04-25T06:09:54.527Z,63.3667
2019-04-25T06:10:58.348Z,63.2690
2019-04-25T06:12:01.314Z,63.3667
2019-04-25T06:13:04.312Z,63.5742
2019-04-25T06:14:07.337Z,63.4705
2019-04-25T06:15:10.308Z,63.2385
2019-04-25T06:16:13.509Z,62.8296
2019-04-25T06:17:15.323Z,63.2385
2019-04-25T06:18:19.752Z,63.2385
2019-04-25T06:19:25.186Z,64.0564
2019-04-25T06:20:28.329Z,63.9587
2019-04-25T06:21:31.866Z,63.9587
2019-04-25T06:22:36.332Z,64.1602
2019-04-25T06:23:39.306Z,64.3677
2019-04-25T06:24:42.327Z,63.8550
2019-04-25T06:25:45.322Z,63.3423
2019-04-25T06:26:48.324Z,62.9272
2019-04-25T06:27:57.307Z,63.3118
2019-04-25T06:28:59.918Z,63.4155
2019-04-25T06:30:04.390Z,63.3118
2019-04-25T06:31:10.129Z,62.9028
2019-04-25T06:32:14.210Z,62.9028
2019-04-25T06:33:17.357Z,62.9028
2019-04-25T06:34:21.345Z,62.5916
2019-04-25T06:35:25.858Z,62.4634
2019-04-25T06:36:29.316Z,63.2812
2019-04-25T06:37:33.637Z,63.5864
2019-04-25T06:38:37.387Z,62.8723
2019-04-25T06:39:40.308Z,62.4634
2019-04-25T06:40:43.773Z,62.4634
2019-04-25T06:41:47.349Z,62.3596
2019-04-25T06:42:49.327Z,62.0239
2019-04-25T06:43:53.988Z,62.1216
2019-04-25T06:44:57.314Z,61.8164
2019-04-25T06:46:00.335Z,61.9202
2019-04-25T06:47:03.437Z,61.8896
2019-04-25T06:48:06.304Z,62.2986
2019-04-25T06:49:09.337Z,62.1948
2019-04-25T06:50:13.663Z,62.7075
2019-04-25T06:51:18.321Z,62.5061
2019-04-25T06:52:21.610Z,62.5061
2019-04-25T06:53:26.040Z,62.9883
2019-04-25T06:54:30.365Z,63.1958
2019-04-25T06:55:34.290Z,63.6047
2019-04-25T06:56:37.278Z,63.7024
2019-04-25T06:57:40.316Z,63.6047
2019-04-25T06:58:43.858Z,63.2935
2019-04-25T06:59:46.360Z,63.3972
2019-04-25T07:00:58.059Z,63.6047
2019-04-25T07:01:57.303Z,63.6047
2019-04-25T07:02:59.353Z,63.7756
2019-04-25T07:04:01.461Z,63.8794
2019-04-25T07:05:05.396Z,63.4705
2019-04-25T07:06:10.300Z,64.0869
2019-04-25T07:07:14.961Z,63.9832
2019-04-25T07:08:18.311Z,63.6475
2019-04-25T07:09:24.172Z,63.5437
2019-04-25T07:10:29.504Z,63.2385
2019-04-25T07:11:32.972Z,63.1348
2019-04-25T07:12:38.305Z,63.7207
2019-04-25T07:13:41.306Z,63.6169
2019-04-25T07:14:44.295Z,63.6169
2019-04-25T07:15:47.309Z,63.5132
2019-04-25T07:16:50.318Z,63.1042
2019-04-25T07:17:54.027Z,63.8184
2019-04-25T07:18:57.371Z,63.5132
2019-04-25T07:20:00.328Z,63.3850
2019-04-25T07:21:03.409Z,63.1775
2019-04-25T07:22:06.290Z,63.4827
2019-04-25T07:23:09.309Z,63.6902
2019-04-25T07:24:14.124Z,63.6902
2019-04-25T07:25:17.287Z,63.2812
2019-04-25T07:26:19.352Z,62.9456
2019-04-25T07:27:23.688Z,63.0432
2019-04-25T07:28:30.829Z,63.0432
2019-04-25T07:29:34.869Z,63.1470
2019-04-25T07:30:49.968Z,63.7329
2019-04-25T07:31:47.291Z,63.2202
2019-04-25T07:32:50.304Z,63.6292
2019-04-25T07:33:55.300Z,63.1165
2019-04-25T07:34:58.371Z,62.9883
2019-04-25T07:36:01.275Z,63.2935
2019-04-25T07:37:04.315Z,62.8845
2019-04-25T07:38:07.299Z,63.1897
2019-04-25T07:39:10.738Z,62.8540
2019-04-25T07:40:14.323Z,63.2629
2019-04-25T07:41:17.332Z,63.1592
2019-04-25T07:42:20.343Z,62.8540
2019-04-25T07:43:23.439Z,62.7563
2019-04-25T07:44:38.765Z,63.1348
2019-04-25T07:45:35.056Z,62.6221
2019-04-25T07:46:39.983Z,62.6221
2019-04-25T07:47:44.101Z,63.0310
2019-04-25T07:48:46.318Z,62.8235
2019-04-25T07:49:49.364Z,62.8235
2019-04-25T07:50:53.639Z,63.2324
2019-04-25T07:51:57.326Z,62.9272
2019-04-25T07:53:00.309Z,62.8235
2019-04-25T07:54:04.528Z,62.8235
2019-04-25T07:55:07.319Z,62.7991
2019-04-25T07:56:10.358Z,62.8967
2019-04-25T07:57:13.588Z,62.7991
2019-04-25T07:58:17.327Z,63.0005
2019-04-25T07:59:20.317Z,63.0005
2019-04-25T08:00:24.032Z,62.7991
2019-04-25T08:01:28.115Z,62.8967
2019-04-25T08:02:33.832Z,62.8967
2019-04-25T08:03:37.313Z,62.8967
2019-04-25T08:04:40.310Z,62.8967
2019-04-25T08:05:43.992Z,63.0005
2019-04-25T08:06:47.337Z,62.8967
2019-04-25T08:07:49.389Z,62.6953
2019-04-25T08:08:52.297Z,62.6953
2019-04-25T08:09:55.314Z,63.0005
2019-04-25T08:10:58.323Z,63.0005
2019-04-25T08:12:01.303Z,62.4939
2019-04-25T08:13:04.949Z,62.5916
2019-04-25T08:14:08.291Z,62.5916
2019-04-25T08:15:11.395Z,62.2864
2019-04-25T08:16:14.614Z,62.3901
2019-04-25T08:17:18.317Z,62.1826
2019-04-25T08:18:23.356Z,62.2864
2019-04-25T08:19:28.729Z,62.0850
2019-04-25T08:20:34.042Z,61.9812
2019-04-25T08:21:37.289Z,61.7798
2019-04-25T08:22:51.965Z,61.8774
2019-04-25T08:23:48.313Z,61.8774
2019-04-25T08:24:51.317Z,61.7798
2019-04-25T08:25:54.479Z,61.7493
2019-04-25T08:26:57.357Z,62.2559
2019-04-25T08:28:00.310Z,62.3596
2019-04-25T08:29:03.653Z,62.6648
2019-04-25T08:30:07.313Z,62.8967
2019-04-25T08:31:10.332Z,63.0005
2019-04-25T08:32:14.245Z,63.2019
2019-04-25T08:33:17.314Z,62.5916
2019-04-25T08:34:20.322Z,62.4939
2019-04-25T08:35:24.100Z,62.4939
2019-04-25T08:36:27.355Z,62.7991
2019-04-25T08:37:30.449Z,63.0005
2019-04-25T08:38:34.713Z,62.7991
2019-04-25T08:39:38.890Z,62.5916
2019-04-25T08:40:44.078Z,62.3901
2019-04-25T08:41:47.308Z,62.3901
2019-04-25T08:42:50.338Z,62.6648
2019-04-25T08:43:54.484Z,63.0737
2019-04-25T08:44:58.310Z,62.8723
2019-04-25T08:46:01.325Z,62.7686
2019-04-25T08:47:04.527Z,62.4329
2019-04-25T08:48:06.378Z,61.9263
2019-04-25T08:49:09.315Z,61.8225
2019-04-25T08:50:26.395Z,61.6150
2019-04-25T08:51:20.346Z,61.8225
2019-04-25T08:52:24.338Z,62.0239
2019-04-25T08:53:27.314Z,61.4136
2019-04-25T08:54:31.200Z,61.8958
2019-04-25T08:55:36.244Z,61.6882
2019-04-25T08:56:40.308Z,61.3831
2019-04-25T08:57:44.009Z,61.1816
2019-04-25T08:58:47.332Z,61.1816
2019-04-25T08:59:52.672Z,61.2854
2019-04-25T09:01:00.928Z,61.7920
2019-04-25T09:02:04.356Z,61.3586
2019-04-25T09:03:07.321Z,61.4563
2019-04-25T09:04:10.286Z,61.3586
2019-04-25T09:05:14.463Z,61.2549
2019-04-25T09:06:19.382Z,61.0535
2019-04-25T09:07:23.564Z,60.9497
2019-04-25T09:08:26.293Z,61.3586
2019-04-25T09:09:32.490Z,61.1511
2019-04-25T09:10:39.977Z,60.8215
2019-04-25T09:11:45.921Z,61.1267
2019-04-25T09:12:50.293Z,60.9192
2019-04-25T09:13:53.714Z,60.5164
2019-04-25T09:14:57.304Z,60.3821
2019-04-25T09:16:00.333Z,60.1501
2019-04-25T09:17:03.337Z,60.0220
2019-04-25T09:18:06.329Z,59.3567
2019-04-25T09:19:09.347Z,58.4900
2019-04-25T09:20:13.776Z,58.2031
2019-04-25T09:21:17.341Z,57.8186
2019-04-25T09:22:20.310Z,57.6355
2019-04-25T09:23:23.698Z,55.7434
2019-04-25T09:24:26.310Z,54.5532
2019-04-25T09:25:29.315Z,53.9734
2019-04-25T09:26:33.960Z,52.2949
2019-04-25T09:27:40.364Z,52.5452
2019-04-25T09:28:46.307Z,50.8911
2019-04-25T09:29:50.315Z,51.2695
2019-04-25T09:30:54.018Z,50.6409
2019-04-25T09:31:57.312Z,50.1160
2019-04-25T09:33:00.370Z,51.6174
2019-04-25T09:34:04.077Z,52.3193
2019-04-25T09:35:07.284Z,52.4902
2019-04-25T09:36:10.366Z,50.9705
2019-04-25T09:37:14.251Z,50.9705
2019-04-25T09:38:17.374Z,47.3511
2019-04-25T09:39:20.294Z,48.9441
2019-04-25T09:40:23.966Z,48.3215
2019-04-25T09:41:27.318Z,47.9248
2019-04-25T09:42:30.355Z,49.2981
2019-04-25T09:43:33.563Z,48.2544
2019-04-25T09:44:38.450Z,46.9116
2019-04-25T09:45:43.924Z,47.8638
2019-04-25T09:46:47.800Z,48.4131
2019-04-25T09:47:51.331Z,47.6746
2019-04-25T09:48:54.329Z,47.1558
2019-04-25T09:49:57.351Z,47.3083
2019-04-25T09:51:00.315Z,44.3115
2019-04-25T09:52:04.396Z,45.3796
2019-04-25T09:53:07.340Z,42.2852
2019-04-25T09:54:10.318Z,36.5234
2019-04-25T09:55:13.258Z,39.4165
2019-04-25T09:56:16.338Z,42.5842
2019-04-25T09:57:19.321Z,43.7927
2019-04-25T09:58:23.743Z,40.8203
2019-04-25T09:59:29.983Z,38.8550
2019-04-25T10:00:33.483Z,40.9607
2019-04-25T10:01:36.542Z,43.9575
2019-04-25T10:02:40.215Z,45.3430
2019-04-25T10:03:44.303Z,45.0256
2019-04-25T10:04:48.289Z,42.5232
2019-04-25T10:05:51.339Z,44.2871
2019-04-25T10:06:54.263Z,39.3372
2019-04-25T10:07:57.324Z,36.6394
2019-04-25T10:09:00.307Z,42.1875
2019-04-25T10:10:03.737Z,41.9678
2019-04-25T10:11:07.300Z,43.8293
2019-04-25T10:12:10.296Z,44.1284
2019-04-25T10:13:13.308Z,44.0063
2019-04-25T10:14:16.325Z,41.6321
2019-04-25T10:15:19.327Z,41.9067
2019-04-25T10:16:22.322Z,41.9067
2019-04-25T10:17:25.300Z,44.4580
2019-04-25T10:18:28.340Z,42.3828
2019-04-25T10:19:31.332Z,42.3645
2019-04-25T10:20:34.355Z,43.8416
2019-04-25T10:21:38.035Z,43.0542
2019-04-25T10:22:42.275Z,40.0879
2019-04-25T10:23:46.836Z,40.6860
2019-04-25T10:24:59.890Z,42.9749
2019-04-25T10:25:58.319Z,41.8884
2019-04-25T10:27:01.326Z,43.9636
2019-04-25T10:28:04.425Z,40.4846
2019-04-25T10:29:07.382Z,39.4958
2019-04-25T10:30:17.646Z,40.2100
2019-04-25T10:31:18.324Z,41.1987
2019-04-25T10:32:21.338Z,41.6931
2019-04-25T10:33:24.359Z,41.6687
2019-04-25T10:34:27.364Z,41.3574
2019-04-25T10:35:30.340Z,41.5527
2019-04-25T10:36:33.707Z,42.8528
2019-04-25T10:37:36.309Z,42.9565
2019-04-25T10:38:40.262Z,42.5598
2019-04-25T10:39:43.831Z,38.0188
2019-04-25T10:40:48.328Z,39.4958
2019-04-25T10:41:51.327Z,40.1917
2019-04-25T10:42:54.327Z,40.5029
2019-04-25T10:43:57.314Z,41.7908
2019-04-25T10:45:00.338Z,42.4805
2019-04-25T10:46:03.745Z,43.4692
2019-04-25T10:47:08.285Z,41.9861
2019-04-25T10:48:11.272Z,35.8643
2019-04-25T10:49:14.625Z,38.4460
2019-04-25T10:50:17.298Z,43.2129
2019-04-25T10:51:20.323Z,41.0400
2019-04-25T10:52:23.455Z,33.9355
2019-04-25T10:53:26.315Z,38.5071
2019-04-25T10:54:29.346Z,42.9810
2019-04-25T10:55:32.345Z,44.2871
2019-04-25T10:56:35.314Z,42.8223
2019-04-25T10:57:38.348Z,43.5364
2019-04-25T10:58:41.568Z,41.2598
2019-04-25T10:59:56.033Z,44.3542
2019-04-25T11:00:52.946Z,45.3430
2019-04-25T11:01:56.348Z,44.1772
2019-04-25T11:02:59.269Z,43.3838
2019-04-25T11:04:02.349Z,42.9871
2019-04-25T11:05:04.399Z,44.9707
2019-04-25T11:06:07.328Z,45.2698
2019-04-25T11:07:10.311Z,44.8730
2019-04-25T11:08:13.762Z,43.7805
2019-04-25T11:09:17.353Z,43.2800
2019-04-25T11:10:20.369Z,43.4021
2019-04-25T11:11:24.131Z,44.5923
2019-04-25T11:12:27.306Z,45.1660
2019-04-25T11:13:30.326Z,43.5791
2019-04-25T11:14:34.259Z,42.5842
2019-04-25T11:15:37.338Z,43.7012
2019-04-25T11:16:40.335Z,44.3970
2019-04-25T11:17:46.513Z,45.5872
2019-04-25T11:18:49.626Z,44.7937
2019-04-25T11:19:54.259Z,45.1904
2019-04-25T11:20:59.194Z,42.9077
2019-04-25T11:22:03.897Z,45.5078
2019-04-25T11:23:07.333Z,45.6116
2019-04-25T11:24:10.305Z,46.0083
2019-04-25T11:25:14.926Z,45.4102
2019-04-25T11:26:18.331Z,45.2087
2019-04-25T11:27:21.328Z,41.3574
2019-04-25T11:28:24.341Z,39.1663
2019-04-25T11:29:27.300Z,45.4346
2019-04-25T11:30:30.352Z,45.7520
2019-04-25T11:31:33.759Z,46.3501
2019-04-25T11:32:37.315Z,45.5505
2019-04-25T11:33:41.384Z,44.4580
2019-04-25T11:34:46.072Z,46.2524
2019-04-25T11:35:50.320Z,46.7712
2019-04-25T11:36:53.347Z,46.2708
2019-04-25T11:37:56.901Z,46.1731
2019-04-25T11:39:00.299Z,45.2759
2019-04-25T11:40:04.286Z,45.8740
2019-04-25T11:41:06.318Z,45.0806
2019-04-25T11:42:09.315Z,44.8975
2019-04-25T11:43:12.317Z,46.1975
2019-04-25T11:44:15.334Z,45.9961
2019-04-25T11:45:18.297Z,46.0938
2019-04-25T11:46:21.322Z,45.7764
2019-04-25T11:47:24.386Z,45.2759
2019-04-25T11:48:27.288Z,45.4956
2019-04-25T11:49:30.309Z,46.4905
2019-04-25T11:50:33.307Z,45.3979
2019-04-25T11:51:36.353Z,44.7021
2019-04-25T11:52:39.354Z,43.8049
2019-04-25T11:53:44.025Z,45.6177
2019-04-25T11:54:48.296Z,43.5242
2019-04-25T11:55:51.469Z,45.6177
2019-04-25T11:56:56.440Z,45.9167
2019-04-25T11:57:59.305Z,46.2402
2019-04-25T11:59:02.340Z,44.5435
2019-04-25T12:00:05.271Z,46.0388
2019-04-25T12:01:08.329Z,46.5393
2019-04-25T12:02:11.320Z,46.4355
2019-04-25T12:03:14.324Z,46.7346
2019-04-25T12:04:17.356Z,42.5537
2019-04-25T12:05:20.334Z,44.4458
2019-04-25T12:06:24.321Z,45.3430
2019-04-25T12:07:27.327Z,42.8528
2019-04-25T12:08:30.325Z,45.7642
2019-04-25T12:09:33.646Z,45.9595
2019-04-25T12:10:36.392Z,44.4641
2019-04-25T12:11:39.333Z,45.3613
2019-04-25T12:12:44.239Z,46.1609
2019-04-25T12:13:49.328Z,43.6707
2019-04-25T12:14:54.021Z,45.3613
2019-04-25T12:15:58.529Z,45.1660
2019-04-25T12:17:01.364Z,44.9646
2019-04-25T12:18:04.689Z,43.7683
2019-04-25T12:19:07.327Z,44.0674
2019-04-25T12:20:10.344Z,44.7632
2019-04-25T12:21:13.672Z,44.0491
2019-04-25T12:22:17.313Z,45.0439
2019-04-25T12:23:20.313Z,44.7449
2019-04-25T12:24:23.905Z,45.1233
2019-04-25T12:25:27.339Z,44.5251
2019-04-25T12:26:30.394Z,44.2261
2019-04-25T12:27:33.327Z,44.1223
2019-04-25T12:28:36.340Z,42.5110
2019-04-25T12:29:39.319Z,40.1428
2019-04-25T12:30:43.793Z,41.3330
2019-04-25T12:31:49.213Z,43.5242
2019-04-25T12:32:53.727Z,43.8232
2019-04-25T12:33:57.639Z,44.5007
2019-04-25T12:35:01.351Z,44.7021
2019-04-25T12:36:04.325Z,43.7073
2019-04-25T12:37:07.327Z,43.9270
2019-04-25T12:38:10.361Z,41.3330
2019-04-25T12:39:14.065Z,43.8232
2019-04-25T12:40:17.298Z,44.1223
2019-04-25T12:41:20.311Z,43.9270
2019-04-25T12:42:24.170Z,43.9270
2019-04-25T12:43:27.344Z,39.2456
2019-04-25T12:44:30.346Z,40.2588
2019-04-25T12:45:34.292Z,43.3472
2019-04-25T12:46:37.325Z,43.4509
2019-04-25T12:47:39.390Z,42.2546
2019-04-25T12:48:43.186Z,43.2495
2019-04-25T12:49:46.754Z,43.2495